sensor_id;sensor_type;location;lat;lon;timestamp;P1;durP1;ratioP1;P2;durP2;ratioP2
13698;SDS011;6921;53.642;9.956;2022-08-18T00:01:14;4.60;;;4.20;;
13698;SDS011;6921;53.642;9.956;2022-08-18T00:03:18;5.10;;;4.60;;
13698;SDS011;6921;53.642;9.956;2022-08-18T00:05:26;5.47;;;4.97;;
13698;SDS011;6921;53.642;9.956;2022-08-18T00:07:31;5.72;;;5.22;;
13698;SDS011;6921;53.642;9.956;2022-08-18T00:09:36;6.38;;;5.60;;
13698;SDS011;6921;53.642;9.956;2022-08-18T00:11:40;5.00;;;4.60;;
13698;SDS011;6921;53.642;9.956;2022-08-18T00:13:44;5.18;;;4.68;;
13698;SDS011;6921;53.642;9.956;2022-08-18T00:15:47;5.32;;;4.75;;
13698;SDS011;6921;53.642;9.956;2022-08-18T00:17:51;5.35;;;4.70;;
13698;SDS011;6921;53.642;9.956;2022-08-18T00:19:55;5.60;;;5.10;;
13698;SDS011;6921;53.642;9.956;2022-08-18T00:21:58;5.22;;;4.53;;
13698;SDS011;6921;53.642;9.956;2022-08-18T00:24:01;5.82;;;4.70;;
13698;SDS011;6921;53.642;9.956;2022-08-18T00:26:06;4.95;;;4.55;;
13698;SDS011;6921;53.642;9.956;2022-08-18T00:28:09;5.70;;;4.68;;
13698;SDS011;6921;53.642;9.956;2022-08-18T00:30:15;4.90;;;4.50;;
13698;SDS011;6921;53.642;9.956;2022-08-18T00:32:19;4.95;;;4.55;;
13698;SDS011;6921;53.642;9.956;2022-08-18T00:34:23;4.68;;;4.25;;
13698;SDS011;6921;53.642;9.956;2022-08-18T00:36:27;5.07;;;4.10;;
13698;SDS011;6921;53.642;9.956;2022-08-18T00:38:32;4.65;;;4.25;;
13698;SDS011;6921;53.642;9.956;2022-08-18T00:40:37;4.85;;;4.35;;
13698;SDS011;6921;53.642;9.956;2022-08-18T00:42:43;5.15;;;4.70;;
13698;SDS011;6921;53.642;9.956;2022-08-18T00:44:48;4.60;;;4.20;;
13698;SDS011;6921;53.642;9.956;2022-08-18T00:46:51;5.30;;;4.78;;
13698;SDS011;6921;53.642;9.956;2022-08-18T00:48:54;4.90;;;4.40;;
13698;SDS011;6921;53.642;9.956;2022-08-18T00:50:58;4.65;;;4.13;;
13698;SDS011;6921;53.642;9.956;2022-08-18T00:53:03;5.32;;;4.60;;
13698;SDS011;6921;53.642;9.956;2022-08-18T00:55:07;5.55;;;5.05;;
13698;SDS011;6921;53.642;9.956;2022-08-18T00:57:11;4.95;;;4.45;;
13698;SDS011;6921;53.642;9.956;2022-08-18T00:59:19;5.40;;;4.90;;
13698;SDS011;6921;53.642;9.956;2022-08-18T01:01:27;7.10;;;5.20;;
13698;SDS011;6921;53.642;9.956;2022-08-18T01:03:31;5.53;;;5.03;;
13698;SDS011;6921;53.642;9.956;2022-08-18T01:05:37;5.30;;;4.80;;
13698;SDS011;6921;53.642;9.956;2022-08-18T01:07:45;5.65;;;5.15;;
13698;SDS011;6921;53.642;9.956;2022-08-18T01:09:49;5.60;;;5.10;;
13698;SDS011;6921;53.642;9.956;2022-08-18T01:11:52;6.22;;;5.63;;
13698;SDS011;6921;53.642;9.956;2022-08-18T01:13:56;5.55;;;5.05;;
13698;SDS011;6921;53.642;9.956;2022-08-18T01:16:01;5.95;;;5.30;;
13698;SDS011;6921;53.642;9.956;2022-08-18T01:18:25;6.20;;;5.57;;
13698;SDS011;6921;53.642;9.956;2022-08-18T01:20:55;6.63;;;5.80;;
13698;SDS011;6921;53.642;9.956;2022-08-18T01:23:23;7.65;;;5.72;;
13698;SDS011;6921;53.642;9.956;2022-08-18T01:25:27;6.25;;;5.65;;
13698;SDS011;6921;53.642;9.956;2022-08-18T01:27:48;8.38;;;5.68;;
13698;SDS011;6921;53.642;9.956;2022-08-18T01:29:51;6.82;;;6.00;;
13698;SDS011;6921;53.642;9.956;2022-08-18T01:31:54;6.15;;;5.65;;
13698;SDS011;6921;53.642;9.956;2022-08-18T01:33:58;6.60;;;6.00;;
13698;SDS011;6921;53.642;9.956;2022-08-18T01:36:04;6.97;;;6.28;;
13698;SDS011;6921;53.642;9.956;2022-08-18T01:38:08;6.90;;;6.20;;
13698;SDS011;6921;53.642;9.956;2022-08-18T01:40:15;7.53;;;6.78;;
13698;SDS011;6921;53.642;9.956;2022-08-18T01:42:39;7.47;;;6.53;;
13698;SDS011;6921;53.642;9.956;2022-08-18T01:44:43;8.10;;;6.05;;
13698;SDS011;6921;53.642;9.956;2022-08-18T01:46:48;6.78;;;6.10;;
13698;SDS011;6921;53.642;9.956;2022-08-18T01:48:53;7.63;;;6.65;;
13698;SDS011;6921;53.642;9.956;2022-08-18T01:50:56;7.35;;;6.07;;
13698;SDS011;6921;53.642;9.956;2022-08-18T01:52:59;7.35;;;6.53;;
13698;SDS011;6921;53.642;9.956;2022-08-18T01:55:05;7.00;;;6.30;;
13698;SDS011;6921;53.642;9.956;2022-08-18T01:57:10;7.88;;;6.90;;
13698;SDS011;6921;53.642;9.956;2022-08-18T01:59:14;7.90;;;7.10;;
13698;SDS011;6921;53.642;9.956;2022-08-18T02:01:18;7.75;;;6.80;;
13698;SDS011;6921;53.642;9.956;2022-08-18T02:03:22;7.72;;;6.70;;
13698;SDS011;6921;53.642;9.956;2022-08-18T02:05:29;9.35;;;7.25;;
13698;SDS011;6921;53.642;9.956;2022-08-18T02:07:34;7.53;;;6.75;;
13698;SDS011;6921;53.642;9.956;2022-08-18T02:09:38;8.15;;;7.35;;
13698;SDS011;6921;53.642;9.956;2022-08-18T02:11:42;9.02;;;7.57;;
13698;SDS011;6921;53.642;9.956;2022-08-18T02:13:47;7.82;;;7.00;;
13698;SDS011;6921;53.642;9.956;2022-08-18T02:15:50;9.20;;;7.82;;
13698;SDS011;6921;53.642;9.956;2022-08-18T02:17:53;10.10;;;7.50;;
13698;SDS011;6921;53.642;9.956;2022-08-18T02:19:56;8.23;;;7.43;;
13698;SDS011;6921;53.642;9.956;2022-08-18T02:22:00;9.40;;;7.80;;
13698;SDS011;6921;53.642;9.956;2022-08-18T02:24:04;8.68;;;7.88;;
13698;SDS011;6921;53.642;9.956;2022-08-18T02:26:07;9.18;;;8.20;;
13698;SDS011;6921;53.642;9.956;2022-08-18T02:28:11;8.77;;;7.57;;
13698;SDS011;6921;53.642;9.956;2022-08-18T02:30:16;10.00;;;8.00;;
13698;SDS011;6921;53.642;9.956;2022-08-18T02:32:20;9.18;;;8.27;;
13698;SDS011;6921;53.642;9.956;2022-08-18T02:34:23;9.75;;;8.27;;
13698;SDS011;6921;53.642;9.956;2022-08-18T02:36:26;8.88;;;7.90;;
13698;SDS011;6921;53.642;9.956;2022-08-18T02:38:30;10.23;;;8.68;;
13698;SDS011;6921;53.642;9.956;2022-08-18T02:40:33;9.23;;;8.25;;
13698;SDS011;6921;53.642;9.956;2022-08-18T02:42:39;10.57;;;8.10;;
13698;SDS011;6921;53.642;9.956;2022-08-18T02:44:43;9.30;;;8.40;;
13698;SDS011;6921;53.642;9.956;2022-08-18T02:46:50;9.38;;;8.45;;
13698;SDS011;6921;53.642;9.956;2022-08-18T02:48:54;10.38;;;9.32;;
13698;SDS011;6921;53.642;9.956;2022-08-18T02:50:58;10.13;;;9.13;;
13698;SDS011;6921;53.642;9.956;2022-08-18T02:53:03;12.07;;;8.57;;
13698;SDS011;6921;53.642;9.956;2022-08-18T02:55:06;10.07;;;9.07;;
13698;SDS011;6921;53.642;9.956;2022-08-18T02:57:10;9.57;;;8.60;;
13698;SDS011;6921;53.642;9.956;2022-08-18T02:59:16;9.65;;;8.50;;
13698;SDS011;6921;53.642;9.956;2022-08-18T03:01:21;9.60;;;8.70;;
13698;SDS011;6921;53.642;9.956;2022-08-18T03:03:28;9.45;;;8.55;;
13698;SDS011;6921;53.642;9.956;2022-08-18T03:05:32;10.25;;;9.25;;
13698;SDS011;6921;53.642;9.956;2022-08-18T03:07:36;10.68;;;9.57;;
13698;SDS011;6921;53.642;9.956;2022-08-18T03:09:39;10.35;;;9.27;;
13698;SDS011;6921;53.642;9.956;2022-08-18T03:11:43;10.73;;;9.50;;
13698;SDS011;6921;53.642;9.956;2022-08-18T03:13:46;11.48;;;10.20;;
13698;SDS011;6921;53.642;9.956;2022-08-18T03:15:50;10.55;;;9.55;;
13698;SDS011;6921;53.642;9.956;2022-08-18T03:17:57;11.32;;;10.25;;
13698;SDS011;6921;53.642;9.956;2022-08-18T03:20:03;11.35;;;9.98;;
13698;SDS011;6921;53.642;9.956;2022-08-18T03:22:07;13.18;;;10.77;;
13698;SDS011;6921;53.642;9.956;2022-08-18T03:24:19;11.93;;;10.73;;
13698;SDS011;6921;53.642;9.956;2022-08-18T03:26:24;10.93;;;9.82;;
13698;SDS011;6921;53.642;9.956;2022-08-18T03:28:27;11.48;;;10.40;;
13698;SDS011;6921;53.642;9.956;2022-08-18T03:30:31;11.65;;;10.55;;
13698;SDS011;6921;53.642;9.956;2022-08-18T03:32:34;10.73;;;9.68;;
13698;SDS011;6921;53.642;9.956;2022-08-18T03:34:37;11.45;;;10.35;;
13698;SDS011;6921;53.642;9.956;2022-08-18T03:36:44;11.48;;;10.23;;
13698;SDS011;6921;53.642;9.956;2022-08-18T03:38:48;12.38;;;11.13;;
13698;SDS011;6921;53.642;9.956;2022-08-18T03:40:52;12.60;;;11.30;;
13698;SDS011;6921;53.642;9.956;2022-08-18T03:42:56;11.50;;;10.30;;
13698;SDS011;6921;53.642;9.956;2022-08-18T03:44:59;12.48;;;11.23;;
13698;SDS011;6921;53.642;9.956;2022-08-18T03:47:13;12.32;;;10.38;;
13698;SDS011;6921;53.642;9.956;2022-08-18T03:49:18;12.05;;;10.85;;
13698;SDS011;6921;53.642;9.956;2022-08-18T03:51:23;14.32;;;11.07;;
13698;SDS011;6921;53.642;9.956;2022-08-18T03:53:29;12.23;;;11.05;;
13698;SDS011;6921;53.642;9.956;2022-08-18T03:55:35;12.57;;;11.27;;
13698;SDS011;6921;53.642;9.956;2022-08-18T03:57:40;11.95;;;10.75;;
13698;SDS011;6921;53.642;9.956;2022-08-18T03:59:43;12.82;;;11.52;;
13698;SDS011;6921;53.642;9.956;2022-08-18T04:01:47;12.20;;;11.00;;
13698;SDS011;6921;53.642;9.956;2022-08-18T04:03:52;12.50;;;11.23;;
13698;SDS011;6921;53.642;9.956;2022-08-18T04:05:57;13.32;;;11.93;;
13698;SDS011;6921;53.642;9.956;2022-08-18T04:08:00;13.18;;;11.82;;
13698;SDS011;6921;53.642;9.956;2022-08-18T04:10:06;13.90;;;11.93;;
13698;SDS011;6921;53.642;9.956;2022-08-18T04:12:14;13.23;;;11.90;;
13698;SDS011;6921;53.642;9.956;2022-08-18T04:14:19;13.90;;;11.95;;
13698;SDS011;6921;53.642;9.956;2022-08-18T04:16:25;14.05;;;12.60;;
13698;SDS011;6921;53.642;9.956;2022-08-18T04:18:29;13.63;;;12.27;;
13698;SDS011;6921;53.642;9.956;2022-08-18T04:20:33;13.43;;;11.70;;
13698;SDS011;6921;53.642;9.956;2022-08-18T04:22:36;13.23;;;11.93;;
13698;SDS011;6921;53.642;9.956;2022-08-18T04:24:40;13.00;;;11.43;;
13698;SDS011;6921;53.642;9.956;2022-08-18T04:26:45;12.82;;;11.63;;
13698;SDS011;6921;53.642;9.956;2022-08-18T04:28:49;13.70;;;11.95;;
13698;SDS011;6921;53.642;9.956;2022-08-18T04:30:52;12.07;;;10.77;;
13698;SDS011;6921;53.642;9.956;2022-08-18T04:32:57;12.52;;;11.32;;
13698;SDS011;6921;53.642;9.956;2022-08-18T04:35:00;14.10;;;12.00;;
13698;SDS011;6921;53.642;9.956;2022-08-18T04:37:06;12.50;;;11.20;;
13698;SDS011;6921;53.642;9.956;2022-08-18T04:39:10;13.32;;;11.82;;
13698;SDS011;6921;53.642;9.956;2022-08-18T04:41:14;13.75;;;11.88;;
13698;SDS011;6921;53.642;9.956;2022-08-18T04:43:18;13.52;;;12.02;;
13698;SDS011;6921;53.642;9.956;2022-08-18T04:45:22;13.63;;;11.93;;
13698;SDS011;6921;53.642;9.956;2022-08-18T04:47:25;12.60;;;11.25;;
13698;SDS011;6921;53.642;9.956;2022-08-18T04:49:28;13.30;;;12.00;;
13698;SDS011;6921;53.642;9.956;2022-08-18T04:51:32;13.38;;;11.82;;
13698;SDS011;6921;53.642;9.956;2022-08-18T04:53:56;12.95;;;11.55;;
13698;SDS011;6921;53.642;9.956;2022-08-18T04:56:00;13.35;;;11.52;;
13698;SDS011;6921;53.642;9.956;2022-08-18T04:58:04;13.60;;;12.20;;
13698;SDS011;6921;53.642;9.956;2022-08-18T05:00:09;13.25;;;11.90;;
13698;SDS011;6921;53.642;9.956;2022-08-18T05:02:14;13.02;;;11.73;;
13698;SDS011;6921;53.642;9.956;2022-08-18T05:04:19;12.30;;;11.00;;
13698;SDS011;6921;53.642;9.956;2022-08-18T05:06:22;13.77;;;10.98;;
13698;SDS011;6921;53.642;9.956;2022-08-18T05:08:27;12.82;;;11.10;;
13698;SDS011;6921;53.642;9.956;2022-08-18T05:10:31;12.45;;;11.15;;
13698;SDS011;6921;53.642;9.956;2022-08-18T05:12:34;12.75;;;11.38;;
13698;SDS011;6921;53.642;9.956;2022-08-18T05:14:37;11.50;;;10.10;;
13698;SDS011;6921;53.642;9.956;2022-08-18T05:16:42;12.65;;;10.55;;
13698;SDS011;6921;53.642;9.956;2022-08-18T05:18:49;12.80;;;11.40;;
13698;SDS011;6921;53.642;9.956;2022-08-18T05:20:54;11.10;;;10.10;;
13698;SDS011;6921;53.642;9.956;2022-08-18T05:22:57;11.10;;;10.00;;
13698;SDS011;6921;53.642;9.956;2022-08-18T05:25:00;12.13;;;10.93;;
13698;SDS011;6921;53.642;9.956;2022-08-18T05:27:04;11.32;;;10.13;;
13698;SDS011;6921;53.642;9.956;2022-08-18T05:29:08;12.13;;;10.70;;
13698;SDS011;6921;53.642;9.956;2022-08-18T05:31:18;12.35;;;10.63;;
13698;SDS011;6921;53.642;9.956;2022-08-18T05:33:24;12.60;;;11.23;;
13698;SDS011;6921;53.642;9.956;2022-08-18T05:35:29;11.63;;;10.43;;
13698;SDS011;6921;53.642;9.956;2022-08-18T05:37:43;11.80;;;10.65;;
13698;SDS011;6921;53.642;9.956;2022-08-18T05:39:59;12.07;;;10.88;;
13698;SDS011;6921;53.642;9.956;2022-08-18T05:42:12;12.07;;;10.80;;
13698;SDS011;6921;53.642;9.956;2022-08-18T05:44:19;12.60;;;11.35;;
13698;SDS011;6921;53.642;9.956;2022-08-18T05:46:31;10.82;;;9.80;;
13698;SDS011;6921;53.642;9.956;2022-08-18T05:48:41;12.60;;;11.30;;
13698;SDS011;6921;53.642;9.956;2022-08-18T05:50:44;12.52;;;11.18;;
13698;SDS011;6921;53.642;9.956;2022-08-18T05:52:49;12.95;;;10.70;;
13698;SDS011;6921;53.642;9.956;2022-08-18T05:54:59;12.40;;;11.00;;
13698;SDS011;6921;53.642;9.956;2022-08-18T05:57:23;12.32;;;11.13;;
13698;SDS011;6921;53.642;9.956;2022-08-18T05:59:33;14.02;;;12.57;;
13698;SDS011;6921;53.642;9.956;2022-08-18T06:01:40;15.55;;;13.68;;
13698;SDS011;6921;53.642;9.956;2022-08-18T06:03:48;15.18;;;13.52;;
13698;SDS011;6921;53.642;9.956;2022-08-18T06:05:55;18.85;;;14.75;;
13698;SDS011;6921;53.642;9.956;2022-08-18T06:08:02;17.85;;;16.02;;
13698;SDS011;6921;53.642;9.956;2022-08-18T06:10:09;17.88;;;16.08;;
13698;SDS011;6921;53.642;9.956;2022-08-18T06:12:26;18.17;;;15.70;;
13698;SDS011;6921;53.642;9.956;2022-08-18T06:14:35;18.45;;;16.35;;
13698;SDS011;6921;53.642;9.956;2022-08-18T06:16:45;20.63;;;16.40;;
13698;SDS011;6921;53.642;9.956;2022-08-18T06:19:00;19.10;;;15.68;;
13698;SDS011;6921;53.642;9.956;2022-08-18T06:21:16;17.65;;;15.85;;
13698;SDS011;6921;53.642;9.956;2022-08-18T06:23:40;17.30;;;15.43;;
13698;SDS011;6921;53.642;9.956;2022-08-18T06:25:53;16.55;;;13.88;;
13698;SDS011;6921;53.642;9.956;2022-08-18T06:28:06;18.30;;;15.65;;
13698;SDS011;6921;53.642;9.956;2022-08-18T06:30:14;17.48;;;14.60;;
13698;SDS011;6921;53.642;9.956;2022-08-18T06:32:23;16.65;;;14.80;;
13698;SDS011;6921;53.642;9.956;2022-08-18T06:34:38;16.33;;;14.38;;
13698;SDS011;6921;53.642;9.956;2022-08-18T06:36:53;15.38;;;13.77;;
13698;SDS011;6921;53.642;9.956;2022-08-18T06:39:02;15.18;;;13.68;;
13698;SDS011;6921;53.642;9.956;2022-08-18T06:41:09;15.48;;;13.82;;
13698;SDS011;6921;53.642;9.956;2022-08-18T06:43:35;14.80;;;13.30;;
13698;SDS011;6921;53.642;9.956;2022-08-18T06:45:43;15.75;;;14.02;;
13698;SDS011;6921;53.642;9.956;2022-08-18T06:47:50;14.38;;;12.98;;
13698;SDS011;6921;53.642;9.956;2022-08-18T06:50:03;16.42;;;13.70;;
13698;SDS011;6921;53.642;9.956;2022-08-18T06:52:22;14.75;;;13.20;;
13698;SDS011;6921;53.642;9.956;2022-08-18T06:54:29;15.65;;;13.93;;
13698;SDS011;6921;53.642;9.956;2022-08-18T06:56:34;14.07;;;12.57;;
13698;SDS011;6921;53.642;9.956;2022-08-18T06:58:50;14.38;;;13.00;;
13698;SDS011;6921;53.642;9.956;2022-08-18T07:00:57;15.90;;;13.50;;
13698;SDS011;6921;53.642;9.956;2022-08-18T07:03:03;15.00;;;13.38;;
13698;SDS011;6921;53.642;9.956;2022-08-18T07:05:16;14.60;;;13.20;;
13698;SDS011;6921;53.642;9.956;2022-08-18T07:07:28;16.67;;;14.85;;
13698;SDS011;6921;53.642;9.956;2022-08-18T07:09:40;18.40;;;16.33;;
13698;SDS011;6921;53.642;9.956;2022-08-18T07:11:56;16.88;;;14.55;;
13698;SDS011;6921;53.642;9.956;2022-08-18T07:14:11;22.88;;;17.00;;
13698;SDS011;6921;53.642;9.956;2022-08-18T07:16:19;21.38;;;17.73;;
13698;SDS011;6921;53.642;9.956;2022-08-18T07:18:45;31.65;;;24.45;;
13698;SDS011;6921;53.642;9.956;2022-08-18T07:20:51;39.55;;;28.05;;
13698;SDS011;6921;53.642;9.956;2022-08-18T07:22:59;37.13;;;28.10;;
13698;SDS011;6921;53.642;9.956;2022-08-18T07:25:10;40.67;;;28.08;;
13698;SDS011;6921;53.642;9.956;2022-08-18T07:27:40;36.08;;;26.30;;
13698;SDS011;6921;53.642;9.956;2022-08-18T07:29:59;34.22;;;25.48;;
13698;SDS011;6921;53.642;9.956;2022-08-18T07:32:08;39.95;;;26.27;;
13698;SDS011;6921;53.642;9.956;2022-08-18T07:34:16;45.03;;;27.75;;
13698;SDS011;6921;53.642;9.956;2022-08-18T07:36:24;47.47;;;29.27;;
13698;SDS011;6921;53.642;9.956;2022-08-18T07:38:32;45.83;;;28.15;;
13698;SDS011;6921;53.642;9.956;2022-08-18T07:40:45;50.10;;;28.38;;
13698;SDS011;6921;53.642;9.956;2022-08-18T07:42:56;45.15;;;27.02;;
13698;SDS011;6921;53.642;9.956;2022-08-18T07:45:04;42.17;;;25.50;;
13698;SDS011;6921;53.642;9.956;2022-08-18T07:47:15;37.33;;;23.85;;
13698;SDS011;6921;53.642;9.956;2022-08-18T07:49:21;34.67;;;24.40;;
13698;SDS011;6921;53.642;9.956;2022-08-18T07:51:29;36.88;;;24.00;;
13698;SDS011;6921;53.642;9.956;2022-08-18T07:53:46;39.90;;;27.20;;
13698;SDS011;6921;53.642;9.956;2022-08-18T07:55:57;48.15;;;29.00;;
13698;SDS011;6921;53.642;9.956;2022-08-18T07:58:09;41.85;;;28.10;;
13698;SDS011;6921;53.642;9.956;2022-08-18T08:00:22;43.33;;;28.58;;
13698;SDS011;6921;53.642;9.956;2022-08-18T08:02:52;39.67;;;26.08;;
13698;SDS011;6921;53.642;9.956;2022-08-18T08:05:09;34.78;;;25.25;;
13698;SDS011;6921;53.642;9.956;2022-08-18T08:07:22;35.38;;;24.88;;
13698;SDS011;6921;53.642;9.956;2022-08-18T08:09:28;37.47;;;25.10;;
13698;SDS011;6921;53.642;9.956;2022-08-18T08:11:44;35.78;;;24.88;;
13698;SDS011;6921;53.642;9.956;2022-08-18T08:13:57;34.88;;;23.73;;
13698;SDS011;6921;53.642;9.956;2022-08-18T08:16:09;31.80;;;22.30;;
13698;SDS011;6921;53.642;9.956;2022-08-18T08:18:20;33.97;;;24.13;;
13698;SDS011;6921;53.642;9.956;2022-08-18T08:20:35;35.83;;;23.70;;
13698;SDS011;6921;53.642;9.956;2022-08-18T08:22:48;32.38;;;23.05;;
13698;SDS011;6921;53.642;9.956;2022-08-18T08:25:02;31.70;;;22.30;;
13698;SDS011;6921;53.642;9.956;2022-08-18T08:27:31;35.10;;;24.17;;
13698;SDS011;6921;53.642;9.956;2022-08-18T08:29:48;33.85;;;22.65;;
13698;SDS011;6921;53.642;9.956;2022-08-18T08:32:00;37.90;;;23.25;;
13698;SDS011;6921;53.642;9.956;2022-08-18T08:34:06;37.83;;;24.70;;
13698;SDS011;6921;53.642;9.956;2022-08-18T08:36:16;39.13;;;26.08;;
13698;SDS011;6921;53.642;9.956;2022-08-18T08:38:26;37.03;;;24.58;;
13698;SDS011;6921;53.642;9.956;2022-08-18T08:40:45;37.30;;;24.17;;
13698;SDS011;6921;53.642;9.956;2022-08-18T08:42:55;40.75;;;24.75;;
13698;SDS011;6921;53.642;9.956;2022-08-18T08:45:04;39.25;;;26.10;;
13698;SDS011;6921;53.642;9.956;2022-08-18T08:47:13;36.75;;;24.98;;
13698;SDS011;6921;53.642;9.956;2022-08-18T08:49:24;39.42;;;27.02;;
13698;SDS011;6921;53.642;9.956;2022-08-18T08:51:34;38.20;;;25.15;;
13698;SDS011;6921;53.642;9.956;2022-08-18T08:53:43;37.25;;;23.95;;
13698;SDS011;6921;53.642;9.956;2022-08-18T08:55:50;30.83;;;22.20;;
13698;SDS011;6921;53.642;9.956;2022-08-18T08:58:01;32.35;;;23.65;;
13698;SDS011;6921;53.642;9.956;2022-08-18T09:00:17;32.30;;;23.33;;
13698;SDS011;6921;53.642;9.956;2022-08-18T09:02:27;30.15;;;21.50;;
13698;SDS011;6921;53.642;9.956;2022-08-18T09:04:51;31.80;;;22.00;;
13698;SDS011;6921;53.642;9.956;2022-08-18T09:07:13;36.33;;;23.80;;
13698;SDS011;6921;53.642;9.956;2022-08-18T09:09:35;34.03;;;23.30;;
13698;SDS011;6921;53.642;9.956;2022-08-18T09:11:54;33.08;;;23.40;;
13698;SDS011;6921;53.642;9.956;2022-08-18T09:14:16;30.13;;;23.42;;
13698;SDS011;6921;53.642;9.956;2022-08-18T09:16:49;28.35;;;21.65;;
13698;SDS011;6921;53.642;9.956;2022-08-18T09:19:06;29.60;;;22.05;;
13698;SDS011;6921;53.642;9.956;2022-08-18T09:21:31;28.90;;;22.55;;
13698;SDS011;6921;53.642;9.956;2022-08-18T09:23:44;28.73;;;23.08;;
13698;SDS011;6921;53.642;9.956;2022-08-18T09:25:51;29.23;;;22.95;;
13698;SDS011;6921;53.642;9.956;2022-08-18T09:28:05;33.13;;;24.67;;
13698;SDS011;6921;53.642;9.956;2022-08-18T09:32:55;31.20;;;22.08;;
13698;SDS011;6921;53.642;9.956;2022-08-18T09:35:13;28.73;;;20.95;;
13698;SDS011;6921;53.642;9.956;2022-08-18T09:37:27;24.92;;;20.30;;
13698;SDS011;6921;53.642;9.956;2022-08-18T09:39:42;27.25;;;20.67;;
13698;SDS011;6921;53.642;9.956;2022-08-18T09:42:15;27.42;;;20.58;;
13698;SDS011;6921;53.642;9.956;2022-08-18T09:46:59;25.20;;;19.63;;
13698;SDS011;6921;53.642;9.956;2022-08-18T09:51:39;23.75;;;17.85;;
13698;SDS011;6921;53.642;9.956;2022-08-18T09:53:53;26.75;;;19.92;;
13698;SDS011;6921;53.642;9.956;2022-08-18T09:59:03;27.63;;;21.40;;
13698;SDS011;6921;53.642;9.956;2022-08-18T10:01:36;25.45;;;20.00;;
13698;SDS011;6921;53.642;9.956;2022-08-18T10:03:40;26.55;;;19.17;;
13698;SDS011;6921;53.642;9.956;2022-08-18T10:05:59;25.88;;;19.92;;
13698;SDS011;6921;53.642;9.956;2022-08-18T10:10:50;28.13;;;21.13;;
13698;SDS011;6921;53.642;9.956;2022-08-18T10:13:01;26.48;;;19.95;;
13698;SDS011;6921;53.642;9.956;2022-08-18T10:17:49;28.30;;;20.73;;
13698;SDS011;6921;53.642;9.956;2022-08-18T10:20:04;27.20;;;20.55;;
13698;SDS011;6921;53.642;9.956;2022-08-18T10:22:35;27.58;;;19.90;;
13698;SDS011;6921;53.642;9.956;2022-08-18T10:24:43;25.98;;;20.02;;
13698;SDS011;6921;53.642;9.956;2022-08-18T10:26:57;27.17;;;20.67;;
13698;SDS011;6921;53.642;9.956;2022-08-18T10:29:03;24.35;;;19.92;;
13698;SDS011;6921;53.642;9.956;2022-08-18T10:31:09;23.88;;;19.60;;
13698;SDS011;6921;53.642;9.956;2022-08-18T10:33:12;26.13;;;21.20;;
13698;SDS011;6921;53.642;9.956;2022-08-18T10:35:56;25.67;;;20.13;;
13698;SDS011;6921;53.642;9.956;2022-08-18T10:38:03;26.45;;;20.50;;
13698;SDS011;6921;53.642;9.956;2022-08-18T10:40:12;25.80;;;19.98;;
13698;SDS011;6921;53.642;9.956;2022-08-18T10:42:21;25.80;;;19.55;;
13698;SDS011;6921;53.642;9.956;2022-08-18T10:44:29;26.48;;;20.58;;
13698;SDS011;6921;53.642;9.956;2022-08-18T10:46:40;23.27;;;19.52;;
13698;SDS011;6921;53.642;9.956;2022-08-18T10:48:57;26.95;;;20.58;;
13698;SDS011;6921;53.642;9.956;2022-08-18T10:51:05;28.77;;;19.75;;
13698;SDS011;6921;53.642;9.956;2022-08-18T10:53:23;24.15;;;19.17;;
13698;SDS011;6921;53.642;9.956;2022-08-18T10:55:45;23.63;;;19.40;;
13698;SDS011;6921;53.642;9.956;2022-08-18T10:57:58;27.40;;;19.60;;
13698;SDS011;6921;53.642;9.956;2022-08-18T11:00:11;23.83;;;19.05;;
13698;SDS011;6921;53.642;9.956;2022-08-18T11:02:25;23.13;;;19.30;;
13698;SDS011;6921;53.642;9.956;2022-08-18T11:04:42;22.75;;;18.48;;
13698;SDS011;6921;53.642;9.956;2022-08-18T11:06:47;23.88;;;18.10;;
13698;SDS011;6921;53.642;9.956;2022-08-18T11:08:54;19.98;;;17.33;;
13698;SDS011;6921;53.642;9.956;2022-08-18T11:11:04;26.63;;;19.60;;
13698;SDS011;6921;53.642;9.956;2022-08-18T11:13:36;22.23;;;18.23;;
13698;SDS011;6921;53.642;9.956;2022-08-18T11:15:55;24.02;;;18.60;;
13698;SDS011;6921;53.642;9.956;2022-08-18T11:18:09;23.88;;;18.77;;
13698;SDS011;6921;53.642;9.956;2022-08-18T11:20:29;24.63;;;18.55;;
13698;SDS011;6921;53.642;9.956;2022-08-18T11:22:33;22.50;;;17.20;;
13698;SDS011;6921;53.642;9.956;2022-08-18T11:24:42;23.10;;;18.42;;
13698;SDS011;6921;53.642;9.956;2022-08-18T11:26:47;21.63;;;18.25;;
13698;SDS011;6921;53.642;9.956;2022-08-18T11:28:53;19.30;;;16.92;;
13698;SDS011;6921;53.642;9.956;2022-08-18T11:30:56;21.60;;;17.85;;
13698;SDS011;6921;53.642;9.956;2022-08-18T11:33:01;21.45;;;18.40;;
13698;SDS011;6921;53.642;9.956;2022-08-18T11:35:10;24.67;;;18.25;;
13698;SDS011;6921;53.642;9.956;2022-08-18T11:37:21;22.77;;;19.55;;
13698;SDS011;6921;53.642;9.956;2022-08-18T11:39:28;23.60;;;18.25;;
13698;SDS011;6921;53.642;9.956;2022-08-18T11:41:38;19.30;;;17.20;;
13698;SDS011;6921;53.642;9.956;2022-08-18T11:43:53;18.38;;;16.33;;
13698;SDS011;6921;53.642;9.956;2022-08-18T11:45:59;18.92;;;15.93;;
13698;SDS011;6921;53.642;9.956;2022-08-18T11:48:16;18.77;;;15.80;;
13698;SDS011;6921;53.642;9.956;2022-08-18T11:50:27;18.15;;;15.13;;
13698;SDS011;6921;53.642;9.956;2022-08-18T11:52:33;16.17;;;14.48;;
13698;SDS011;6921;53.642;9.956;2022-08-18T11:54:49;15.75;;;14.13;;
13698;SDS011;6921;53.642;9.956;2022-08-18T11:56:53;16.75;;;15.00;;
13698;SDS011;6921;53.642;9.956;2022-08-18T11:59:30;15.50;;;13.90;;
13698;SDS011;6921;53.642;9.956;2022-08-18T12:01:36;15.07;;;13.57;;
13698;SDS011;6921;53.642;9.956;2022-08-18T12:03:43;15.88;;;13.25;;
13698;SDS011;6921;53.642;9.956;2022-08-18T12:05:51;13.45;;;12.05;;
13698;SDS011;6921;53.642;9.956;2022-08-18T12:07:57;12.27;;;11.07;;
13698;SDS011;6921;53.642;9.956;2022-08-18T12:10:09;12.98;;;11.68;;
13698;SDS011;6921;53.642;9.956;2022-08-18T12:12:23;12.93;;;11.63;;
13698;SDS011;6921;53.642;9.956;2022-08-18T12:14:29;16.10;;;12.27;;
13698;SDS011;6921;53.642;9.956;2022-08-18T12:16:36;15.52;;;12.52;;
13698;SDS011;6921;53.642;9.956;2022-08-18T12:18:41;14.25;;;12.68;;
13698;SDS011;6921;53.642;9.956;2022-08-18T12:20:44;13.18;;;11.85;;
13698;SDS011;6921;53.642;9.956;2022-08-18T12:22:49;12.18;;;11.02;;
13698;SDS011;6921;53.642;9.956;2022-08-18T12:24:56;14.30;;;12.70;;
13698;SDS011;6921;53.642;9.956;2022-08-18T12:27:00;12.45;;;11.10;;
13698;SDS011;6921;53.642;9.956;2022-08-18T12:29:13;11.90;;;9.90;;
13698;SDS011;6921;53.642;9.956;2022-08-18T12:31:18;12.27;;;11.05;;
13698;SDS011;6921;53.642;9.956;2022-08-18T12:33:21;11.77;;;10.57;;
13698;SDS011;6921;53.642;9.956;2022-08-18T12:35:25;11.20;;;10.10;;
13698;SDS011;6921;53.642;9.956;2022-08-18T12:37:28;11.38;;;10.25;;
13698;SDS011;6921;53.642;9.956;2022-08-18T12:39:53;12.02;;;10.25;;
13698;SDS011;6921;53.642;9.956;2022-08-18T12:41:57;9.45;;;8.52;;
13698;SDS011;6921;53.642;9.956;2022-08-18T12:44:01;9.35;;;8.52;;
13698;SDS011;6921;53.642;9.956;2022-08-18T12:46:04;10.45;;;9.05;;
13698;SDS011;6921;53.642;9.956;2022-08-18T12:48:08;10.20;;;9.20;;
13698;SDS011;6921;53.642;9.956;2022-08-18T12:50:12;8.82;;;8.07;;
13698;SDS011;6921;53.642;9.956;2022-08-18T12:52:15;11.75;;;9.10;;
13698;SDS011;6921;53.642;9.956;2022-08-18T12:54:19;8.40;;;7.70;;
13698;SDS011;6921;53.642;9.956;2022-08-18T12:56:25;9.95;;;8.98;;
13698;SDS011;6921;53.642;9.956;2022-08-18T12:58:30;10.52;;;9.52;;
13698;SDS011;6921;53.642;9.956;2022-08-18T13:00:36;9.98;;;8.35;;
13698;SDS011;6921;53.642;9.956;2022-08-18T13:02:41;9.00;;;8.07;;
13698;SDS011;6921;53.642;9.956;2022-08-18T13:04:44;9.13;;;8.32;;
13698;SDS011;6921;53.642;9.956;2022-08-18T13:06:48;10.43;;;7.82;;